createdAt,value
2023-03-04T00:02:19.909Z,102214.31
2023-03-04T00:04:46.721Z,102214.50
2023-03-04T00:07:17.068Z,102215.47
2023-03-04T00:09:46.491Z,102219.97
2023-03-04T00:12:13.701Z,102218.16
2023-03-04T00:14:41.498Z,102220.94
2023-03-04T00:17:08.454Z,102215.56
2023-03-04T00:19:35.665Z,102222.00
2023-03-04T00:22:04.402Z,102227.19
2023-03-04T00:24:32.356Z,102221.13
2023-03-04T00:26:59.750Z,102220.09
2023-03-04T00:29:27.062Z,102223.16
2023-03-04T00:31:54.107Z,102221.91
2023-03-04T00:34:21.485Z,102221.44
2023-03-04T00:36:48.544Z,102220.47
2023-03-04T00:39:15.762Z,102219.78
2023-03-04T00:41:42.666Z,102218.06
2023-03-04T00:44:09.825Z,102215.22
2023-03-04T00:46:36.725Z,102217.91
2023-03-04T00:49:03.651Z,102225.16
2023-03-04T00:51:30.480Z,102219.91
2023-03-04T00:53:59.665Z,102217.00
2023-03-04T00:56:27.844Z,102217.00
2023-03-04T00:58:54.724Z,102218.75
2023-03-04T01:01:22.124Z,102223.34
2023-03-04T01:03:49.272Z,102222.59
2023-03-04T01:06:16.239Z,102211.94
2023-03-04T01:08:43.698Z,102213.78
2023-03-04T01:11:10.614Z,102219.16
2023-03-04T01:13:37.659Z,102223.72
2023-03-04T01:16:05.281Z,102225.56
2023-03-04T01:18:32.410Z,102227.22
2023-03-04T01:20:59.755Z,102219.41
2023-03-04T01:23:26.588Z,102217.59
2023-03-04T01:25:53.545Z,102220.28
2023-03-04T01:28:20.412Z,102208.75
2023-03-04T01:30:47.299Z,102223.84
2023-03-04T01:33:14.308Z,102209.66
2023-03-04T01:35:41.239Z,102217.13
2023-03-04T01:38:08.293Z,102217.97
2023-03-04T01:40:35.553Z,102208.09
2023-03-04T01:43:02.458Z,102210.09
2023-03-04T01:45:30.539Z,102203.09
2023-03-04T01:47:57.402Z,102203.97
2023-03-04T01:50:32.557Z,102204.94
2023-03-04T01:53:00.539Z,102207.63
2023-03-04T01:55:29.356Z,102201.66
2023-03-04T01:57:57.613Z,102201.09
2023-03-04T02:00:28.552Z,102198.78
2023-03-04T02:03:09.147Z,102198.31
2023-03-04T02:05:40.041Z,102196.09
2023-03-04T02:08:08.504Z,102199.56
2023-03-04T02:10:35.896Z,102199.56
2023-03-04T02:13:03.578Z,102205.81
2023-03-04T02:15:30.870Z,102198.03
2023-03-04T02:17:57.744Z,102195.41
2023-03-04T02:20:33.091Z,102188.59
2023-03-04T02:23:17.932Z,102193.03
2023-03-04T02:26:17.186Z,102198.31
2023-03-04T02:28:45.779Z,102187.84
2023-03-04T02:31:42.685Z,102191.69
2023-03-04T02:34:17.894Z,102190.16
2023-03-04T02:36:46.650Z,102193.41
2023-03-04T02:39:35.446Z,102187.47
2023-03-04T02:42:04.200Z,102196.38
2023-03-04T02:44:34.989Z,102191.84
2023-03-04T02:47:04.588Z,102181.25
2023-03-04T02:49:33.144Z,102185.63
2023-03-04T02:52:06.436Z,102174.91
2023-03-04T02:54:33.758Z,102172.31
2023-03-04T02:57:04.241Z,102166.66
2023-03-04T02:59:31.830Z,102164.75
2023-03-04T03:01:58.664Z,102164.84
2023-03-04T03:04:26.839Z,102168.59
2023-03-04T03:06:53.986Z,102161.56
2023-03-04T03:09:21.306Z,102159.94
2023-03-04T03:11:48.621Z,102163.91
2023-03-04T03:14:15.625Z,102165.69
2023-03-04T03:16:43.398Z,102161.38
2023-03-04T03:19:10.262Z,102163.00
2023-03-04T03:21:37.077Z,102160.41
2023-03-04T03:24:04.398Z,102155.25
2023-03-04T03:26:31.236Z,102153.41
2023-03-04T03:28:58.046Z,102151.72
2023-03-04T03:31:24.839Z,102143.53
2023-03-04T03:33:51.725Z,102150.81
2023-03-04T03:36:18.655Z,102148.06
2023-03-04T03:38:45.473Z,102151.88
2023-03-04T03:41:12.315Z,102148.22
2023-03-04T03:43:39.130Z,102145.66
2023-03-04T03:46:05.970Z,102149.28
2023-03-04T03:48:32.824Z,102146.78
2023-03-04T03:50:59.868Z,102138.94
2023-03-04T03:53:26.688Z,102147.47
2023-03-04T03:55:53.517Z,102149.28
2023-03-04T03:58:20.618Z,102143.16
2023-03-04T04:00:47.442Z,102145.66
2023-03-04T04:03:17.870Z,102145.16
2023-03-04T04:05:44.769Z,102143.56
2023-03-04T04:08:17.529Z,102139.88
2023-03-04T04:10:45.081Z,102137.19
2023-03-04T04:13:12.308Z,102138.75
2023-03-04T04:15:40.427Z,102139.81
2023-03-04T04:18:07.693Z,102144.31
2023-03-04T04:20:35.436Z,102135.50
2023-03-04T04:23:03.518Z,102139.03
2023-03-04T04:25:30.540Z,102137.19
2023-03-04T04:27:57.511Z,102139.81
2023-03-04T04:30:24.648Z,102142.41
2023-03-04T04:32:51.986Z,102140.88
2023-03-04T04:35:20.604Z,102145.25
2023-03-04T04:37:47.494Z,102151.59
2023-03-04T04:40:14.537Z,102150.75
2023-03-04T04:42:41.376Z,102151.38
2023-03-04T04:45:09.272Z,102146.78
2023-03-04T04:47:36.261Z,102156.13
2023-03-04T04:50:03.489Z,102153.31
2023-03-04T04:52:30.385Z,102157.91
2023-03-04T04:54:57.298Z,102150.91
2023-03-04T04:57:24.539Z,102155.22
2023-03-04T04:59:51.416Z,102161.47
2023-03-04T05:02:18.224Z,102163.56
2023-03-04T05:04:45.006Z,102164.25
2023-03-04T05:07:11.780Z,102159.06
2023-03-04T05:09:38.761Z,102151.88
2023-03-04T05:12:05.848Z,102161.56
2023-03-04T05:14:32.687Z,102157.13
2023-03-04T05:16:59.544Z,102162.72
2023-03-04T05:19:26.402Z,102166.84
2023-03-04T05:21:53.179Z,102166.34
2023-03-04T05:24:20.547Z,102168.09
2023-03-04T05:26:47.518Z,102164.44
2023-03-04T05:29:14.311Z,102160.97
2023-03-04T05:31:41.110Z,102168.09
2023-03-04T05:34:07.910Z,102172.00
2023-03-04T05:36:34.686Z,102173.63
2023-03-04T05:39:01.461Z,102180.91
2023-03-04T05:41:28.298Z,102180.06
2023-03-04T05:43:55.347Z,102176.47
2023-03-04T05:46:25.980Z,102180.81
2023-03-04T05:48:54.852Z,102178.31
2023-03-04T05:51:23.629Z,102175.53
2023-03-04T05:53:50.572Z,102171.88
2023-03-04T05:56:21.352Z,102174.78
2023-03-04T05:58:48.309Z,102173.13
2023-03-04T06:01:15.849Z,102179.38
2023-03-04T06:03:45.480Z,102168.72
2023-03-04T06:06:12.491Z,102172.25
2023-03-04T06:08:39.302Z,102173.13
2023-03-04T06:11:06.387Z,102172.25
2023-03-04T06:13:34.340Z,102173.22
2023-03-04T06:16:01.716Z,102174.16
2023-03-04T06:18:29.807Z,102174.16
2023-03-04T06:21:03.242Z,102174.34
2023-03-04T06:23:31.108Z,102177.22
2023-03-04T06:26:00.202Z,102179.03
2023-03-04T06:28:28.105Z,102181.81
2023-03-04T06:30:56.955Z,102188.91
2023-03-04T06:33:24.551Z,102187.19
2023-03-04T06:35:56.146Z,102192.66
2023-03-04T06:38:24.347Z,102193.00
2023-03-04T06:40:51.680Z,102185.63
2023-03-04T06:43:19.313Z,102188.41
2023-03-04T06:45:46.198Z,102195.13
2023-03-04T06:48:13.594Z,102193.31
2023-03-04T06:50:41.293Z,102193.41
2023-03-04T06:53:08.123Z,102196.09
2023-03-04T06:55:35.004Z,102190.81
2023-03-04T06:58:01.862Z,102197.72
2023-03-04T07:00:29.019Z,102205.00
2023-03-04T07:02:55.857Z,102205.00
2023-03-04T07:05:22.649Z,102207.50
2023-03-04T07:07:49.931Z,102210.38
2023-03-04T07:10:18.925Z,102217.47
2023-03-04T07:12:46.204Z,102217.81
2023-03-04T07:15:13.843Z,102219.19
2023-03-04T07:17:41.082Z,102217.38
2023-03-04T07:20:10.015Z,102212.88
2023-03-04T07:22:37.274Z,102218.84
2023-03-04T07:25:05.818Z,102211.06
2023-03-04T07:27:33.085Z,102218.25
2023-03-04T07:29:59.908Z,102225.16
2023-03-04T07:32:27.475Z,102221.63
2023-03-04T07:34:54.314Z,102216.94
2023-03-04T07:37:21.166Z,102222.09
2023-03-04T07:39:48.100Z,102215.56
2023-03-04T07:42:14.952Z,102219.63
2023-03-04T07:44:41.765Z,102219.00
2023-03-04T07:47:09.048Z,102217.09
2023-03-04T07:49:35.917Z,102215.34
2023-03-04T07:52:06.557Z,102220.72
2023-03-04T07:54:33.577Z,102223.22
2023-03-04T07:57:00.404Z,102218.25
2023-03-04T07:59:27.237Z,102211.56
2023-03-04T08:01:54.012Z,102216.63
2023-03-04T08:04:21.152Z,102217.41
2023-03-04T08:06:48.983Z,102215.50
2023-03-04T08:09:16.014Z,102215.59
2023-03-04T08:11:43.629Z,102222.00
2023-03-04T08:14:13.152Z,102220.88
2023-03-04T08:16:40.354Z,102221.53
2023-03-04T08:19:08.262Z,102217.91
2023-03-04T08:21:35.633Z,102234.41
2023-03-04T08:24:08.709Z,102225.78
2023-03-04T08:26:42.167Z,102227.31
2023-03-04T08:29:13.721Z,102229.81
2023-03-04T08:31:41.453Z,102218.22
2023-03-04T08:34:10.661Z,102222.16
2023-03-04T08:36:37.706Z,102234.59
2023-03-04T08:39:05.917Z,102225.88
2023-03-04T08:41:33.321Z,102230.88
2023-03-04T08:44:01.484Z,102228.44
2023-03-04T08:46:29.594Z,102230.81
2023-03-04T08:48:56.753Z,102227.59
2023-03-04T08:51:23.859Z,102227.78
2023-03-04T08:53:50.634Z,102226.53
2023-03-04T08:56:18.498Z,102227.03
2023-03-04T08:58:45.579Z,102227.13
2023-03-04T09:01:14.818Z,102235.09
2023-03-04T09:03:42.777Z,102223.38
2023-03-04T09:06:14.113Z,102222.16
2023-03-04T09:08:41.071Z,102219.38
2023-03-04T09:11:08.706Z,102214.22
2023-03-04T09:13:35.807Z,102221.13
2023-03-04T09:16:02.758Z,102214.91
2023-03-04T09:18:29.941Z,102220.06
2023-03-04T09:20:56.797Z,102217.47
2023-03-04T09:23:23.635Z,102221.13
2023-03-04T09:25:50.879Z,102222.47
2023-03-04T09:28:20.157Z,102219.69
2023-03-04T09:30:47.350Z,102221.41
2023-03-04T09:33:15.193Z,102228.72
2023-03-04T09:35:42.556Z,102225.47
2023-03-04T09:38:09.913Z,102229.84
2023-03-04T09:40:47.326Z,102239.66
2023-03-04T09:43:29.666Z,102229.69
2023-03-04T09:46:02.011Z,102235.03
2023-03-04T09:48:40.837Z,102227.59
2023-03-04T09:51:35.923Z,102232.44
2023-03-04T09:54:26.730Z,102228.81
2023-03-04T09:57:05.196Z,102229.50
2023-03-04T09:59:45.463Z,102219.41
2023-03-04T10:03:03.236Z,102217.00
2023-03-04T10:05:35.165Z,102214.53
2023-03-04T10:08:29.790Z,102224.97
2023-03-04T10:11:01.294Z,102218.66
2023-03-04T10:13:41.808Z,102215.38
2023-03-04T10:16:15.221Z,102214.63
2023-03-04T10:18:55.151Z,102208.59
2023-03-04T10:21:37.367Z,102205.88
2023-03-04T10:24:18.360Z,102204.81
2023-03-04T10:26:48.804Z,102207.22
2023-03-04T10:29:22.781Z,102214.09
2023-03-04T10:31:50.035Z,102206.16
2023-03-04T10:34:18.236Z,102211.31
2023-03-04T10:37:05.793Z,102208.47
2023-03-04T10:39:37.758Z,102202.00
2023-03-04T10:42:16.798Z,102202.78
2023-03-04T10:45:01.477Z,102210.66
2023-03-04T10:47:31.783Z,102198.94
2023-03-04T10:50:02.513Z,102203.16
2023-03-04T10:52:40.224Z,102207.94
2023-03-04T10:55:18.183Z,102200.63
2023-03-04T10:57:50.975Z,102195.78
2023-03-04T11:00:17.684Z,102198.28
2023-03-04T11:02:49.207Z,102196.38
2023-03-04T11:05:17.852Z,102195.84
2023-03-04T11:07:56.957Z,102194.81
2023-03-04T11:10:36.433Z,102199.13
2023-03-04T11:13:11.992Z,102191.13
2023-03-04T11:16:06.641Z,102184.75
2023-03-04T11:18:44.990Z,102187.03
2023-03-04T11:21:23.178Z,102181.00
2023-03-04T11:24:04.446Z,102183.38
2023-03-04T11:26:47.814Z,102177.78
2023-03-04T11:29:43.814Z,102185.75
2023-03-04T11:32:27.542Z,102191.13
2023-03-04T11:35:16.768Z,102175.41
2023-03-04T11:38:20.599Z,102174.16
2023-03-04T11:41:21.116Z,102172.88
2023-03-04T11:43:48.750Z,102176.75
2023-03-04T11:46:36.992Z,102170.75
2023-03-04T11:49:10.005Z,102167.41
2023-03-04T11:52:10.510Z,102156.41
2023-03-04T11:55:02.135Z,102162.88
2023-03-04T11:58:04.588Z,102156.97
2023-03-04T12:01:04.496Z,102148.56
2023-03-04T12:03:52.963Z,102139.75
2023-03-04T12:06:48.296Z,102139.22
2023-03-04T12:09:29.822Z,102136.97
2023-03-04T12:12:23.563Z,102130.09
2023-03-04T12:15:07.109Z,102129.00
2023-03-04T12:17:42.722Z,102119.66
2023-03-04T12:20:37.440Z,102119.09
2023-03-04T12:24:04.754Z,102116.94
2023-03-04T12:26:43.833Z,102110.16
2023-03-04T12:29:29.181Z,102109.41
2023-03-04T12:32:18.572Z,102108.09
2023-03-04T12:35:23.755Z,102109.84
2023-03-04T12:38:29.204Z,102110.03
2023-03-04T12:41:18.270Z,102108.94
2023-03-04T12:43:45.145Z,102106.59
2023-03-04T12:46:25.057Z,102099.06
2023-03-04T12:49:20.377Z,102099.69
2023-03-04T12:52:43.994Z,102100.72
2023-03-04T12:55:16.869Z,102094.19
2023-03-04T12:57:43.906Z,102103.56
2023-03-04T13:00:35.425Z,102098.84
2023-03-04T13:03:23.574Z,102094.06
2023-03-04T13:06:11.167Z,102094.75
2023-03-04T13:08:46.197Z,102088.19
2023-03-04T13:11:34.662Z,102079.66
2023-03-04T13:14:27.531Z,102078.16
2023-03-04T13:17:49.684Z,102067.84
2023-03-04T13:20:22.670Z,102069.56
2023-03-04T13:23:19.722Z,102067.00
2023-03-04T13:25:55.547Z,102064.31
2023-03-04T13:28:26.984Z,102081.41
2023-03-04T13:30:57.231Z,102074.97
2023-03-04T13:33:24.008Z,102057.78
2023-03-04T13:36:04.238Z,102061.53
2023-03-04T13:38:31.329Z,102054.75
2023-03-04T13:41:20.935Z,102054.66
2023-03-04T13:43:53.213Z,102045.50
2023-03-04T13:46:20.072Z,102043.34
2023-03-04T13:48:53.212Z,102038.31
2023-03-04T13:51:43.137Z,102040.22
2023-03-04T13:54:29.204Z,102037.31
2023-03-04T13:57:03.010Z,102028.91
2023-03-04T13:59:46.837Z,102029.91
2023-03-04T14:02:20.257Z,102024.19
2023-03-04T14:05:01.358Z,102018.16
2023-03-04T14:07:35.679Z,102017.09
2023-03-04T14:10:24.796Z,102009.97
2023-03-04T14:12:56.289Z,102014.09
2023-03-04T14:15:30.119Z,102012.34
2023-03-04T14:18:00.444Z,102013.00
2023-03-04T14:20:47.858Z,102014.09
2023-03-04T14:23:32.322Z,102008.13
2023-03-04T14:26:13.675Z,102006.00
2023-03-04T14:28:57.511Z,101998.56
2023-03-04T14:31:30.720Z,101994.28
2023-03-04T14:34:02.282Z,101987.59
2023-03-04T14:36:37.023Z,101980.06
2023-03-04T14:39:07.003Z,101986.97
2023-03-04T14:41:40.709Z,101983.28
2023-03-04T14:44:47.013Z,101984.38
2023-03-04T14:47:33.986Z,101979.63
2023-03-04T14:50:01.175Z,101974.75
2023-03-04T14:52:38.283Z,101978.44
2023-03-04T14:55:14.361Z,101982.44
2023-03-04T14:57:44.313Z,101983.28
2023-03-04T15:00:21.751Z,101969.09
2023-03-04T15:03:18.813Z,101979.28
2023-03-04T15:05:46.905Z,101971.34
2023-03-04T15:08:27.728Z,101970.81
2023-03-04T15:11:02.658Z,101968.22
2023-03-04T15:13:50.295Z,101965.88
2023-03-04T15:16:23.804Z,101974.91
2023-03-04T15:19:06.303Z,101968.56
2023-03-04T15:21:41.454Z,101959.50
2023-03-04T15:24:12.888Z,101958.31
2023-03-04T15:26:43.673Z,101963.63
2023-03-04T15:29:18.479Z,101955.97
2023-03-04T15:31:48.968Z,101948.88
2023-03-04T15:34:19.502Z,101949.94
2023-03-04T15:36:50.174Z,101954.25
2023-03-04T15:39:19.162Z,101953.91
2023-03-04T15:41:50.834Z,101945.31
2023-03-04T15:44:17.653Z,101946.94
2023-03-04T15:46:44.598Z,101945.84
2023-03-04T15:49:12.043Z,101939.81
2023-03-04T15:51:39.081Z,101940.06
2023-03-04T15:54:14.753Z,101931.00
2023-03-04T15:56:41.728Z,101937.88
2023-03-04T15:59:15.142Z,101926.91
2023-03-04T16:01:42.314Z,101928.66
2023-03-04T16:04:17.318Z,101923.28
2023-03-04T16:06:47.250Z,101919.81
2023-03-04T16:09:17.469Z,101913.56
2023-03-04T16:11:48.049Z,101904.53
2023-03-04T16:14:17.198Z,101907.75
2023-03-04T16:16:47.465Z,101922.94
2023-03-04T16:19:15.640Z,101919.69
2023-03-04T16:21:44.144Z,101907.34
2023-03-04T16:24:19.480Z,101908.63
2023-03-04T16:26:47.292Z,101905.19
2023-03-04T16:29:16.487Z,101902.41
2023-03-04T16:31:44.415Z,101903.69
2023-03-04T16:34:12.319Z,101912.06
2023-03-04T16:36:39.722Z,101915.63
2023-03-04T16:39:17.515Z,101905.19
2023-03-04T16:41:44.787Z,101912.72
2023-03-04T16:44:14.274Z,101905.84
2023-03-04T16:46:41.736Z,101912.94
2023-03-04T16:49:08.670Z,101906.06
2023-03-04T16:51:43.756Z,101894.44
2023-03-04T16:54:22.995Z,101897.47
2023-03-04T16:56:49.998Z,101900.25
2023-03-04T16:59:17.756Z,101895.97
2023-03-04T17:01:44.951Z,101900.25
2023-03-04T17:04:11.890Z,101891.44
2023-03-04T17:06:40.317Z,101894.03
2023-03-04T17:09:08.446Z,101893.56
2023-03-04T17:11:36.182Z,101896.16
2023-03-04T17:14:03.338Z,101894.88
2023-03-04T17:16:30.225Z,101896.59
2023-03-04T17:18:57.348Z,101892.94
2023-03-04T17:21:26.948Z,101885.94
2023-03-04T17:23:54.842Z,101892.41
2023-03-04T17:26:22.737Z,101891.44
2023-03-04T17:28:51.765Z,101895.28
2023-03-04T17:31:21.117Z,101896.78
2023-03-04T17:33:49.088Z,101897.00
2023-03-04T17:36:18.677Z,101896.47
2023-03-04T17:38:46.170Z,101896.38
2023-03-04T17:41:17.650Z,101904.94
2023-03-04T17:43:49.786Z,101897.09
2023-03-04T17:46:20.222Z,101893.56
2023-03-04T17:48:47.337Z,101898.06
2023-03-04T17:51:14.226Z,101895.69
2023-03-04T17:53:41.675Z,101887.53
2023-03-04T17:56:10.855Z,101884.50
2023-03-04T17:58:38.010Z,101884.31
2023-03-04T18:01:15.374Z,101887.94
2023-03-04T18:03:42.709Z,101883.53
2023-03-04T18:06:09.556Z,101888.34
2023-03-04T18:08:36.403Z,101884.63
2023-03-04T18:11:03.746Z,101886.75
2023-03-04T18:13:31.016Z,101883.00
2023-03-04T18:15:57.931Z,101887.41
2023-03-04T18:18:24.873Z,101880.63
2023-03-04T18:20:59.220Z,101887.59
2023-03-04T18:23:27.795Z,101882.25
2023-03-04T18:25:55.666Z,101874.09
2023-03-04T18:28:23.098Z,101875.25
2023-03-04T18:30:54.365Z,101869.56
2023-03-04T18:33:21.854Z,101870.41
2023-03-04T18:35:48.851Z,101864.41
2023-03-04T18:38:15.847Z,101868.06
2023-03-04T18:40:44.368Z,101873.22
2023-03-04T18:43:11.193Z,101872.34
2023-03-04T18:45:38.665Z,101870.28
2023-03-04T18:48:05.988Z,101875.78
2023-03-04T18:50:33.443Z,101871.16
2023-03-04T18:53:00.452Z,101872.88
2023-03-04T18:55:27.556Z,101865.91
2023-03-04T18:57:58.088Z,101876.31
2023-03-04T19:00:25.794Z,101869.22
2023-03-04T19:03:02.016Z,101868.47
2023-03-04T19:05:32.155Z,101876.06
2023-03-04T19:07:59.514Z,101873.28
2023-03-04T19:10:27.436Z,101875.88
2023-03-04T19:12:54.378Z,101864.28
2023-03-04T19:15:22.942Z,101861.28
2023-03-04T19:17:49.820Z,101856.56
2023-03-04T19:20:17.213Z,101870.09
2023-03-04T19:22:44.850Z,101871.16
2023-03-04T19:25:15.994Z,101869.22
2023-03-04T19:27:44.032Z,101864.06
2023-03-04T19:30:14.637Z,101859.88
2023-03-04T19:32:44.453Z,101863.63
2023-03-04T19:35:13.052Z,101860.81
2023-03-04T19:37:41.533Z,101856.75
2023-03-04T19:40:10.635Z,101850.91
2023-03-04T19:42:38.455Z,101857.78
2023-03-04T19:45:09.710Z,101857.25
2023-03-04T19:47:37.902Z,101849.19
2023-03-04T19:50:07.232Z,101850.91
2023-03-04T19:52:34.327Z,101853.78
2023-03-04T19:55:01.597Z,101859.41
2023-03-04T19:57:28.449Z,101848.66
2023-03-04T19:59:55.225Z,101853.28
2023-03-04T20:02:22.030Z,101841.97
2023-03-04T20:04:48.959Z,101847.25
2023-03-04T20:07:16.039Z,101838.22
2023-03-04T20:09:42.946Z,101842.72
2023-03-04T20:12:10.168Z,101844.84
2023-03-04T20:14:37.702Z,101850.22
2023-03-04T20:17:07.183Z,101845.59
2023-03-04T20:19:35.430Z,101842.38
2023-03-04T20:22:03.361Z,101854.06
2023-03-04T20:24:31.532Z,101854.25
2023-03-04T20:27:00.104Z,101856.31
2023-03-04T20:29:28.702Z,101851.03
2023-03-04T20:31:57.510Z,101856.19
2023-03-04T20:34:27.249Z,101850.38
2023-03-04T20:36:54.440Z,101847.59
2023-03-04T20:39:29.625Z,101851.56
2023-03-04T20:41:58.824Z,101845.13
2023-03-04T20:44:26.153Z,101851.66
2023-03-04T20:46:53.636Z,101846.47
2023-03-04T20:49:24.565Z,101839.19
2023-03-04T20:51:53.344Z,101841.78
2023-03-04T20:54:21.187Z,101835.97
2023-03-04T20:56:48.526Z,101840.25
2023-03-04T20:59:15.919Z,101833.06
2023-03-04T21:01:45.479Z,101838.16
2023-03-04T21:04:13.708Z,101841.69
2023-03-04T21:06:41.470Z,101831.28
2023-03-04T21:09:13.519Z,101828.41
2023-03-04T21:11:41.149Z,101822.56
2023-03-04T21:14:13.676Z,101833.97
2023-03-04T21:16:41.316Z,101825.59
2023-03-04T21:19:20.004Z,101823.91
2023-03-04T21:21:49.193Z,101826.44
2023-03-04T21:24:22.592Z,101822.00
2023-03-04T21:26:49.852Z,101824.69
2023-03-04T21:29:20.926Z,101831.78
2023-03-04T21:31:53.394Z,101819.75
2023-03-04T21:34:33.764Z,101828.53
2023-03-04T21:37:01.701Z,101822.91
2023-03-04T21:39:28.731Z,101821.47
2023-03-04T21:41:57.396Z,101816.28
2023-03-04T21:44:38.587Z,101812.84
2023-03-04T21:47:14.990Z,101812.19
2023-03-04T21:49:42.256Z,101813.72
2023-03-04T21:52:10.456Z,101807.59
2023-03-04T21:54:37.699Z,101818.41
2023-03-04T21:57:04.759Z,101812.09
2023-03-04T21:59:32.603Z,101799.63
2023-03-04T22:01:59.849Z,101807.00
2023-03-04T22:04:26.788Z,101797.34
2023-03-04T22:06:53.780Z,101798.22
2023-03-04T22:09:20.953Z,101798.31
2023-03-04T22:11:47.849Z,101794.69
2023-03-04T22:14:14.744Z,101791.16
2023-03-04T22:16:58.997Z,101781.69
2023-03-04T22:19:30.379Z,101782.63
2023-03-04T22:21:57.364Z,101786.81
2023-03-04T22:24:24.262Z,101783.28
2023-03-04T22:26:52.517Z,101787.22
2023-03-04T22:29:19.525Z,101795.19
2023-03-04T22:31:46.450Z,101779.94
2023-03-04T22:34:16.269Z,101792.78
2023-03-04T22:36:47.836Z,101789.34
2023-03-04T22:39:19.480Z,101779.38
2023-03-04T22:41:46.991Z,101790.22
2023-03-04T22:44:14.481Z,101789.06
2023-03-04T22:46:41.887Z,101776.16
2023-03-04T22:49:11.870Z,101768.28
2023-03-04T22:51:42.875Z,101770.03
2023-03-04T22:54:18.472Z,101766.19
2023-03-04T22:56:46.170Z,101767.63
2023-03-04T22:59:13.874Z,101769.28
2023-03-04T23:01:41.533Z,101763.03
2023-03-04T23:04:08.672Z,101767.88
2023-03-04T23:06:36.757Z,101770.22
2023-03-04T23:09:04.322Z,101756.06
2023-03-04T23:11:35.844Z,101756.81
2023-03-04T23:14:07.108Z,101751.53
2023-03-04T23:16:38.732Z,101748.78
2023-03-04T23:19:06.974Z,101743.22
2023-03-04T23:21:34.123Z,101743.97
2023-03-04T23:24:06.307Z,101745.34
2023-03-04T23:26:38.857Z,101732.59
2023-03-04T23:29:11.092Z,101731.63
2023-03-04T23:31:38.038Z,101730.59
2023-03-04T23:34:05.445Z,101721.97
2023-03-04T23:36:36.363Z,101712.50
2023-03-04T23:39:08.977Z,101709.56
2023-03-04T23:41:36.242Z,101707.25
2023-03-04T23:44:06.618Z,101706.50
2023-03-04T23:46:33.736Z,101697.50
2023-03-04T23:49:00.635Z,101690.22
2023-03-04T23:51:29.674Z,101686.56
2023-03-04T23:53:57.538Z,101678.19
2023-03-04T23:56:28.628Z,101681.03
2023-03-04T23:58:57.277Z,101676.06
